sensor_id;sensor_type;location;lat;lon;timestamp;P1;durP1;ratioP1;P2;durP2;ratioP2
27921;SDS011;15261;50.356;10.340;2022-10-26T00:01:20;6.15;;;4.07;;
27921;SDS011;15261;50.356;10.340;2022-10-26T00:03:46;5.57;;;3.97;;
27921;SDS011;15261;50.356;10.340;2022-10-26T00:06:13;5.95;;;4.07;;
27921;SDS011;15261;50.356;10.340;2022-10-26T00:08:43;10.07;;;4.85;;
27921;SDS011;15261;50.356;10.340;2022-10-26T00:11:09;8.23;;;4.20;;
27921;SDS011;15261;50.356;10.340;2022-10-26T00:13:36;9.68;;;4.30;;
27921;SDS011;15261;50.356;10.340;2022-10-26T00:16:09;7.63;;;4.13;;
27921;SDS011;15261;50.356;10.340;2022-10-26T00:18:40;5.68;;;3.45;;
27921;SDS011;15261;50.356;10.340;2022-10-26T00:21:06;7.28;;;3.50;;
27921;SDS011;15261;50.356;10.340;2022-10-26T00:23:33;4.95;;;3.30;;
27921;SDS011;15261;50.356;10.340;2022-10-26T00:25:58;5.65;;;3.45;;
27921;SDS011;15261;50.356;10.340;2022-10-26T00:28:24;7.90;;;3.95;;
27921;SDS011;15261;50.356;10.340;2022-10-26T00:30:51;7.40;;;3.20;;
27921;SDS011;15261;50.356;10.340;2022-10-26T00:33:16;11.63;;;3.10;;
27921;SDS011;15261;50.356;10.340;2022-10-26T00:35:46;7.40;;;2.95;;
27921;SDS011;15261;50.356;10.340;2022-10-26T00:38:13;4.50;;;2.63;;
27921;SDS011;15261;50.356;10.340;2022-10-26T00:40:39;10.50;;;3.10;;
27921;SDS011;15261;50.356;10.340;2022-10-26T00:45:45;7.90;;;2.70;;
27921;SDS011;15261;50.356;10.340;2022-10-26T00:48:17;5.00;;;2.90;;
27921;SDS011;15261;50.356;10.340;2022-10-26T00:50:58;4.75;;;3.40;;
27921;SDS011;15261;50.356;10.340;2022-10-26T00:53:26;6.25;;;3.78;;
27921;SDS011;15261;50.356;10.340;2022-10-26T00:55:53;6.25;;;3.53;;
27921;SDS011;15261;50.356;10.340;2022-10-26T00:58:19;4.18;;;3.88;;
27921;SDS011;15261;50.356;10.340;2022-10-26T01:00:46;5.57;;;4.00;;
27921;SDS011;15261;50.356;10.340;2022-10-26T01:03:13;5.38;;;4.40;;
27921;SDS011;15261;50.356;10.340;2022-10-26T01:05:41;7.95;;;4.32;;
27921;SDS011;15261;50.356;10.340;2022-10-26T01:08:08;4.65;;;4.25;;
27921;SDS011;15261;50.356;10.340;2022-10-26T01:10:35;7.85;;;4.63;;
27921;SDS011;15261;50.356;10.340;2022-10-26T01:13:02;5.10;;;4.10;;
27921;SDS011;15261;50.356;10.340;2022-10-26T01:15:31;5.38;;;3.90;;
27921;SDS011;15261;50.356;10.340;2022-10-26T01:18:12;7.20;;;4.22;;
27921;SDS011;15261;50.356;10.340;2022-10-26T01:20:53;6.93;;;4.10;;
27921;SDS011;15261;50.356;10.340;2022-10-26T01:31:31;4.20;;;3.70;;
27921;SDS011;15261;50.356;10.340;2022-10-26T01:34:13;3.92;;;3.53;;
27921;SDS011;15261;50.356;10.340;2022-10-26T01:36:52;8.23;;;3.47;;
27921;SDS011;15261;50.356;10.340;2022-10-26T01:39:27;5.57;;;3.60;;
27921;SDS011;15261;50.356;10.340;2022-10-26T01:41:59;4.03;;;3.50;;
27921;SDS011;15261;50.356;10.340;2022-10-26T01:44:38;5.30;;;3.20;;
27921;SDS011;15261;50.356;10.340;2022-10-26T01:47:12;9.05;;;3.17;;
27921;SDS011;15261;50.356;10.340;2022-10-26T01:49:41;8.13;;;3.47;;
27921;SDS011;15261;50.356;10.340;2022-10-26T01:52:11;7.13;;;3.53;;
27921;SDS011;15261;50.356;10.340;2022-10-26T01:54:36;7.10;;;3.08;;
27921;SDS011;15261;50.356;10.340;2022-10-26T01:57:09;3.95;;;2.80;;
27921;SDS011;15261;50.356;10.340;2022-10-26T01:59:42;4.20;;;3.17;;
27921;SDS011;15261;50.356;10.340;2022-10-26T02:02:44;4.63;;;3.13;;
27921;SDS011;15261;50.356;10.340;2022-10-26T02:05:29;4.40;;;3.10;;
27921;SDS011;15261;50.356;10.340;2022-10-26T02:13:19;6.32;;;3.00;;
27921;SDS011;15261;50.356;10.340;2022-10-26T02:21:39;3.45;;;3.15;;
27921;SDS011;15261;50.356;10.340;2022-10-26T02:24:11;4.05;;;3.53;;
27921;SDS011;15261;50.356;10.340;2022-10-26T02:26:38;5.05;;;3.35;;
27921;SDS011;15261;50.356;10.340;2022-10-26T02:29:06;3.40;;;3.10;;
27921;SDS011;15261;50.356;10.340;2022-10-26T02:31:35;4.32;;;3.90;;
27921;SDS011;15261;50.356;10.340;2022-10-26T02:34:02;9.30;;;3.40;;
27921;SDS011;15261;50.356;10.340;2022-10-26T02:36:33;6.47;;;3.00;;
27921;SDS011;15261;50.356;10.340;2022-10-26T02:39:02;5.10;;;3.10;;
27921;SDS011;15261;50.356;10.340;2022-10-26T02:41:30;8.40;;;3.03;;
27921;SDS011;15261;50.356;10.340;2022-10-26T02:43:59;11.73;;;3.25;;
27921;SDS011;15261;50.356;10.340;2022-10-26T02:46:39;6.68;;;3.33;;
27921;SDS011;15261;50.356;10.340;2022-10-26T02:49:05;5.75;;;3.13;;
27921;SDS011;15261;50.356;10.340;2022-10-26T02:51:44;5.30;;;2.90;;
27921;SDS011;15261;50.356;10.340;2022-10-26T02:54:24;4.53;;;2.90;;
27921;SDS011;15261;50.356;10.340;2022-10-26T02:57:02;3.58;;;3.25;;
27921;SDS011;15261;50.356;10.340;2022-10-26T02:59:34;5.43;;;3.33;;
27921;SDS011;15261;50.356;10.340;2022-10-26T03:02:02;5.28;;;3.53;;
27921;SDS011;15261;50.356;10.340;2022-10-26T03:04:29;4.13;;;3.25;;
27921;SDS011;15261;50.356;10.340;2022-10-26T03:06:56;7.80;;;3.40;;
27921;SDS011;15261;50.356;10.340;2022-10-26T03:09:22;8.52;;;3.50;;
27921;SDS011;15261;50.356;10.340;2022-10-26T03:11:48;6.50;;;3.30;;
27921;SDS011;15261;50.356;10.340;2022-10-26T03:14:13;5.70;;;3.50;;
27921;SDS011;15261;50.356;10.340;2022-10-26T03:16:40;6.35;;;3.05;;
27921;SDS011;15261;50.356;10.340;2022-10-26T03:19:05;7.43;;;3.50;;
27921;SDS011;15261;50.356;10.340;2022-10-26T03:21:31;4.93;;;3.03;;
27921;SDS011;15261;50.356;10.340;2022-10-26T03:23:56;8.45;;;3.03;;
27921;SDS011;15261;50.356;10.340;2022-10-26T03:26:22;8.93;;;3.30;;
27921;SDS011;15261;50.356;10.340;2022-10-26T03:28:48;35.67;;;28.92;;
27921;SDS011;15261;50.356;10.340;2022-10-26T03:31:13;10.77;;;6.60;;
27921;SDS011;15261;50.356;10.340;2022-10-26T03:33:39;11.00;;;6.20;;
27921;SDS011;15261;50.356;10.340;2022-10-26T03:36:04;6.45;;;4.53;;
27921;SDS011;15261;50.356;10.340;2022-10-26T03:38:30;10.45;;;4.18;;
27921;SDS011;15261;50.356;10.340;2022-10-26T03:40:56;3.70;;;3.40;;
27921;SDS011;15261;50.356;10.340;2022-10-26T03:43:22;10.55;;;3.80;;
27921;SDS011;15261;50.356;10.340;2022-10-26T03:45:47;8.45;;;4.40;;
27921;SDS011;15261;50.356;10.340;2022-10-26T03:48:13;5.50;;;4.32;;
27921;SDS011;15261;50.356;10.340;2022-10-26T03:50:38;8.27;;;4.07;;
27921;SDS011;15261;50.356;10.340;2022-10-26T03:53:04;7.85;;;4.43;;
27921;SDS011;15261;50.356;10.340;2022-10-26T03:55:30;7.47;;;4.60;;
27921;SDS011;15261;50.356;10.340;2022-10-26T03:57:55;11.57;;;6.53;;
27921;SDS011;15261;50.356;10.340;2022-10-26T04:00:21;7.88;;;5.40;;
27921;SDS011;15261;50.356;10.340;2022-10-26T04:02:52;7.82;;;3.55;;
27921;SDS011;15261;50.356;10.340;2022-10-26T04:05:19;6.72;;;3.50;;
27921;SDS011;15261;50.356;10.340;2022-10-26T04:07:55;10.10;;;5.93;;
27921;SDS011;15261;50.356;10.340;2022-10-26T04:10:23;10.43;;;4.70;;
27921;SDS011;15261;50.356;10.340;2022-10-26T04:12:50;12.15;;;7.85;;
27921;SDS011;15261;50.356;10.340;2022-10-26T04:15:16;10.75;;;4.80;;
27921;SDS011;15261;50.356;10.340;2022-10-26T04:17:42;11.27;;;5.20;;
27921;SDS011;15261;50.356;10.340;2022-10-26T04:20:08;11.13;;;7.68;;
27921;SDS011;15261;50.356;10.340;2022-10-26T04:22:34;7.65;;;4.35;;
27921;SDS011;15261;50.356;10.340;2022-10-26T04:25:00;8.55;;;4.45;;
27921;SDS011;15261;50.356;10.340;2022-10-26T04:27:27;13.70;;;4.30;;
27921;SDS011;15261;50.356;10.340;2022-10-26T04:29:52;10.30;;;4.28;;
27921;SDS011;15261;50.356;10.340;2022-10-26T04:32:18;9.52;;;5.40;;
27921;SDS011;15261;50.356;10.340;2022-10-26T04:34:44;8.20;;;5.82;;
27921;SDS011;15261;50.356;10.340;2022-10-26T04:37:09;5.22;;;4.20;;
27921;SDS011;15261;50.356;10.340;2022-10-26T04:39:35;7.55;;;3.88;;
27921;SDS011;15261;50.356;10.340;2022-10-26T04:42:00;10.77;;;4.03;;
27921;SDS011;15261;50.356;10.340;2022-10-26T04:44:26;8.55;;;3.60;;
27921;SDS011;15261;50.356;10.340;2022-10-26T04:46:52;9.00;;;4.70;;
27921;SDS011;15261;50.356;10.340;2022-10-26T04:49:17;9.63;;;7.07;;
27921;SDS011;15261;50.356;10.340;2022-10-26T04:51:43;6.57;;;5.53;;
27921;SDS011;15261;50.356;10.340;2022-10-26T04:54:08;10.18;;;5.22;;
27921;SDS011;15261;50.356;10.340;2022-10-26T04:56:34;6.28;;;4.40;;
27921;SDS011;15261;50.356;10.340;2022-10-26T04:59:00;6.55;;;4.07;;
27921;SDS011;15261;50.356;10.340;2022-10-26T05:01:25;5.88;;;4.72;;
27921;SDS011;15261;50.356;10.340;2022-10-26T05:03:51;7.30;;;4.20;;
27921;SDS011;15261;50.356;10.340;2022-10-26T05:06:20;10.55;;;4.72;;
27921;SDS011;15261;50.356;10.340;2022-10-26T05:08:46;9.50;;;5.32;;
27921;SDS011;15261;50.356;10.340;2022-10-26T05:11:12;7.53;;;4.68;;
27921;SDS011;15261;50.356;10.340;2022-10-26T05:13:38;9.02;;;4.82;;
27921;SDS011;15261;50.356;10.340;2022-10-26T05:16:04;7.15;;;5.28;;
27921;SDS011;15261;50.356;10.340;2022-10-26T05:18:29;14.32;;;4.45;;
27921;SDS011;15261;50.356;10.340;2022-10-26T05:20:55;7.80;;;4.40;;
27921;SDS011;15261;50.356;10.340;2022-10-26T05:23:21;5.75;;;4.65;;
27921;SDS011;15261;50.356;10.340;2022-10-26T05:25:47;8.65;;;4.68;;
27921;SDS011;15261;50.356;10.340;2022-10-26T05:28:17;12.25;;;4.60;;
27921;SDS011;15261;50.356;10.340;2022-10-26T05:30:43;22.70;;;4.50;;
27921;SDS011;15261;50.356;10.340;2022-10-26T05:33:10;13.85;;;4.57;;
27921;SDS011;15261;50.356;10.340;2022-10-26T05:35:37;16.05;;;4.60;;
27921;SDS011;15261;50.356;10.340;2022-10-26T05:38:10;12.13;;;4.32;;
27921;SDS011;15261;50.356;10.340;2022-10-26T05:40:38;8.73;;;4.80;;
27921;SDS011;15261;50.356;10.340;2022-10-26T05:49:51;14.10;;;5.80;;
27921;SDS011;15261;50.356;10.340;2022-10-26T05:55:06;20.48;;;8.40;;
27921;SDS011;15261;50.356;10.340;2022-10-26T05:57:32;10.68;;;6.60;;
27921;SDS011;15261;50.356;10.340;2022-10-26T05:59:58;19.33;;;7.10;;
27921;SDS011;15261;50.356;10.340;2022-10-26T06:05:53;14.82;;;8.65;;
27921;SDS011;15261;50.356;10.340;2022-10-26T06:08:21;14.68;;;7.95;;
27921;SDS011;15261;50.356;10.340;2022-10-26T06:10:48;17.70;;;12.40;;
27921;SDS011;15261;50.356;10.340;2022-10-26T06:13:14;17.25;;;14.25;;
27921;SDS011;15261;50.356;10.340;2022-10-26T06:21:40;9.57;;;8.57;;
27921;SDS011;15261;50.356;10.340;2022-10-26T06:24:38;11.88;;;8.00;;
27921;SDS011;15261;50.356;10.340;2022-10-26T06:29:59;11.38;;;6.20;;
27921;SDS011;15261;50.356;10.340;2022-10-26T06:32:30;10.50;;;6.53;;
27921;SDS011;15261;50.356;10.340;2022-10-26T06:34:59;9.00;;;6.72;;
27921;SDS011;15261;50.356;10.340;2022-10-26T06:37:47;9.25;;;5.47;;
27921;SDS011;15261;50.356;10.340;2022-10-26T06:40:14;9.45;;;5.20;;
27921;SDS011;15261;50.356;10.340;2022-10-26T06:42:41;7.30;;;4.40;;
27921;SDS011;15261;50.356;10.340;2022-10-26T06:45:14;5.55;;;4.10;;
27921;SDS011;15261;50.356;10.340;2022-10-26T06:50:18;10.50;;;4.55;;
27921;SDS011;15261;50.356;10.340;2022-10-26T06:53:04;5.35;;;4.30;;
27921;SDS011;15261;50.356;10.340;2022-10-26T06:55:44;12.25;;;5.47;;
27921;SDS011;15261;50.356;10.340;2022-10-26T06:58:17;18.08;;;6.45;;
27921;SDS011;15261;50.356;10.340;2022-10-26T07:00:45;9.85;;;4.80;;
27921;SDS011;15261;50.356;10.340;2022-10-26T07:03:13;13.95;;;4.70;;
27921;SDS011;15261;50.356;10.340;2022-10-26T07:05:39;10.95;;;4.78;;
27921;SDS011;15261;50.356;10.340;2022-10-26T07:08:05;10.32;;;6.68;;
27921;SDS011;15261;50.356;10.340;2022-10-26T07:10:31;12.88;;;7.28;;
27921;SDS011;15261;50.356;10.340;2022-10-26T07:12:59;11.95;;;9.48;;
27921;SDS011;15261;50.356;10.340;2022-10-26T07:15:24;10.63;;;9.50;;
27921;SDS011;15261;50.356;10.340;2022-10-26T07:17:50;16.90;;;10.73;;
27921;SDS011;15261;50.356;10.340;2022-10-26T07:20:16;11.90;;;9.18;;
27921;SDS011;15261;50.356;10.340;2022-10-26T07:22:50;10.80;;;8.68;;
27921;SDS011;15261;50.356;10.340;2022-10-26T07:25:19;10.63;;;8.40;;
27921;SDS011;15261;50.356;10.340;2022-10-26T07:27:46;8.30;;;6.00;;
27921;SDS011;15261;50.356;10.340;2022-10-26T07:30:11;8.18;;;6.20;;
27921;SDS011;15261;50.356;10.340;2022-10-26T07:32:37;9.75;;;5.78;;
27921;SDS011;15261;50.356;10.340;2022-10-26T07:35:03;8.38;;;5.75;;
27921;SDS011;15261;50.356;10.340;2022-10-26T07:37:29;6.75;;;5.28;;
27921;SDS011;15261;50.356;10.340;2022-10-26T07:39:54;10.05;;;5.72;;
27921;SDS011;15261;50.356;10.340;2022-10-26T07:42:20;6.20;;;5.35;;
27921;SDS011;15261;50.356;10.340;2022-10-26T07:44:46;7.78;;;4.88;;
27921;SDS011;15261;50.356;10.340;2022-10-26T07:47:11;9.00;;;5.30;;
27921;SDS011;15261;50.356;10.340;2022-10-26T07:49:37;6.88;;;5.20;;
27921;SDS011;15261;50.356;10.340;2022-10-26T07:52:02;7.75;;;4.57;;
27921;SDS011;15261;50.356;10.340;2022-10-26T07:54:28;8.38;;;5.10;;
27921;SDS011;15261;50.356;10.340;2022-10-26T07:56:53;16.80;;;5.10;;
27921;SDS011;15261;50.356;10.340;2022-10-26T07:59:21;15.07;;;5.35;;
27921;SDS011;15261;50.356;10.340;2022-10-26T08:01:47;10.07;;;4.53;;
27921;SDS011;15261;50.356;10.340;2022-10-26T08:04:12;10.73;;;4.38;;
27921;SDS011;15261;50.356;10.340;2022-10-26T08:06:39;9.20;;;4.80;;
27921;SDS011;15261;50.356;10.340;2022-10-26T08:09:04;8.75;;;4.30;;
27921;SDS011;15261;50.356;10.340;2022-10-26T08:11:30;31.13;;;5.10;;
27921;SDS011;15261;50.356;10.340;2022-10-26T08:13:55;34.92;;;5.53;;
27921;SDS011;15261;50.356;10.340;2022-10-26T08:16:21;21.50;;;5.03;;
27921;SDS011;15261;50.356;10.340;2022-10-26T08:18:47;22.17;;;4.93;;
27921;SDS011;15261;50.356;10.340;2022-10-26T08:21:15;15.20;;;5.28;;
27921;SDS011;15261;50.356;10.340;2022-10-26T08:23:41;8.32;;;4.05;;
27921;SDS011;15261;50.356;10.340;2022-10-26T08:26:07;7.40;;;3.40;;
27921;SDS011;15261;50.356;10.340;2022-10-26T08:28:35;5.85;;;3.60;;
27921;SDS011;15261;50.356;10.340;2022-10-26T08:31:02;6.18;;;3.38;;
27921;SDS011;15261;50.356;10.340;2022-10-26T08:33:27;5.22;;;3.30;;
27921;SDS011;15261;50.356;10.340;2022-10-26T08:35:57;13.43;;;3.92;;
27921;SDS011;15261;50.356;10.340;2022-10-26T08:38:24;10.90;;;3.72;;
27921;SDS011;15261;50.356;10.340;2022-10-26T08:40:51;5.00;;;3.60;;
27921;SDS011;15261;50.356;10.340;2022-10-26T08:43:23;7.70;;;3.60;;
27921;SDS011;15261;50.356;10.340;2022-10-26T08:48:45;9.18;;;3.63;;
27921;SDS011;15261;50.356;10.340;2022-10-26T08:51:16;7.57;;;3.80;;
27921;SDS011;15261;50.356;10.340;2022-10-26T08:54:34;20.48;;;4.15;;
27921;SDS011;15261;50.356;10.340;2022-10-26T08:57:47;8.93;;;3.53;;
27921;SDS011;15261;50.356;10.340;2022-10-26T09:02:37;7.13;;;3.97;;
27921;SDS011;15261;50.356;10.340;2022-10-26T09:05:02;8.05;;;4.20;;
27921;SDS011;15261;50.356;10.340;2022-10-26T09:16:39;12.27;;;10.40;;
27921;SDS011;15261;50.356;10.340;2022-10-26T09:26:28;6.32;;;3.95;;
27921;SDS011;15261;50.356;10.340;2022-10-26T09:29:00;35.05;;;4.28;;
27921;SDS011;15261;50.356;10.340;2022-10-26T09:31:31;6.88;;;3.60;;
27921;SDS011;15261;50.356;10.340;2022-10-26T09:34:03;8.00;;;3.60;;
27921;SDS011;15261;50.356;10.340;2022-10-26T09:36:30;33.38;;;16.75;;
27921;SDS011;15261;50.356;10.340;2022-10-26T09:39:03;16.65;;;9.18;;
27921;SDS011;15261;50.356;10.340;2022-10-26T09:41:39;41.85;;;18.10;;
27921;SDS011;15261;50.356;10.340;2022-10-26T09:44:35;18.77;;;10.95;;
27921;SDS011;15261;50.356;10.340;2022-10-26T09:47:14;7.35;;;4.00;;
27921;SDS011;15261;50.356;10.340;2022-10-26T09:49:51;7.30;;;3.97;;
27921;SDS011;15261;50.356;10.340;2022-10-26T09:52:20;5.57;;;4.28;;
27921;SDS011;15261;50.356;10.340;2022-10-26T09:54:46;8.15;;;3.83;;
27921;SDS011;15261;50.356;10.340;2022-10-26T09:57:15;6.45;;;3.80;;
27921;SDS011;15261;50.356;10.340;2022-10-26T09:59:43;6.95;;;3.08;;
27921;SDS011;15261;50.356;10.340;2022-10-26T10:04:56;16.90;;;4.20;;
27921;SDS011;15261;50.356;10.340;2022-10-26T10:07:21;7.57;;;4.20;;
27921;SDS011;15261;50.356;10.340;2022-10-26T10:10:04;9.45;;;3.80;;
27921;SDS011;15261;50.356;10.340;2022-10-26T10:12:40;7.28;;;3.58;;
27921;SDS011;15261;50.356;10.340;2022-10-26T10:15:39;9.07;;;3.53;;
27921;SDS011;15261;50.356;10.340;2022-10-26T10:17:58;7.55;;;4.18;;
27921;SDS011;15261;50.356;10.340;2022-10-26T10:20:27;6.68;;;3.97;;
27921;SDS011;15261;50.356;10.340;2022-10-26T10:22:57;9.73;;;3.63;;
27921;SDS011;15261;50.356;10.340;2022-10-26T10:25:31;7.45;;;3.40;;
27921;SDS011;15261;50.356;10.340;2022-10-26T10:28:01;10.25;;;3.55;;
27921;SDS011;15261;50.356;10.340;2022-10-26T10:30:50;4.47;;;3.10;;
27921;SDS011;15261;50.356;10.340;2022-10-26T10:33:18;12.85;;;3.83;;
27921;SDS011;15261;50.356;10.340;2022-10-26T10:35:48;10.57;;;4.00;;
27921;SDS011;15261;50.356;10.340;2022-10-26T10:38:16;12.32;;;4.57;;
27921;SDS011;15261;50.356;10.340;2022-10-26T10:40:48;12.02;;;4.00;;
27921;SDS011;15261;50.356;10.340;2022-10-26T10:43:17;9.20;;;4.40;;
27921;SDS011;15261;50.356;10.340;2022-10-26T10:45:48;7.63;;;4.10;;
27921;SDS011;15261;50.356;10.340;2022-10-26T10:53:18;9.75;;;5.00;;
27921;SDS011;15261;50.356;10.340;2022-10-26T10:56:30;7.03;;;5.78;;
27921;SDS011;15261;50.356;10.340;2022-10-26T11:01:18;8.52;;;6.43;;
27921;SDS011;15261;50.356;10.340;2022-10-26T11:06:35;6.57;;;4.53;;
27921;SDS011;15261;50.356;10.340;2022-10-26T11:09:10;5.00;;;3.80;;
27921;SDS011;15261;50.356;10.340;2022-10-26T11:11:44;8.43;;;4.70;;
27921;SDS011;15261;50.356;10.340;2022-10-26T11:14:17;9.93;;;4.22;;
27921;SDS011;15261;50.356;10.340;2022-10-26T11:17:03;7.38;;;4.53;;
27921;SDS011;15261;50.356;10.340;2022-10-26T11:19:35;4.80;;;4.30;;
27921;SDS011;15261;50.356;10.340;2022-10-26T11:22:10;4.38;;;3.70;;
27921;SDS011;15261;50.356;10.340;2022-10-26T11:24:44;7.65;;;4.50;;
27921;SDS011;15261;50.356;10.340;2022-10-26T11:27:18;6.90;;;4.10;;
27921;SDS011;15261;50.356;10.340;2022-10-26T11:29:53;7.32;;;3.75;;
27921;SDS011;15261;50.356;10.340;2022-10-26T11:37:48;6.95;;;4.15;;
27921;SDS011;15261;50.356;10.340;2022-10-26T11:45:41;17.90;;;3.92;;
27921;SDS011;15261;50.356;10.340;2022-10-26T11:48:21;7.10;;;3.63;;
27921;SDS011;15261;50.356;10.340;2022-10-26T11:50:53;9.40;;;3.88;;
27921;SDS011;15261;50.356;10.340;2022-10-26T11:53:24;5.82;;;3.50;;
27921;SDS011;15261;50.356;10.340;2022-10-26T11:56:00;7.80;;;3.28;;
27921;SDS011;15261;50.356;10.340;2022-10-26T11:58:28;5.45;;;3.35;;
27921;SDS011;15261;50.356;10.340;2022-10-26T12:01:00;5.10;;;3.50;;
27921;SDS011;15261;50.356;10.340;2022-10-26T12:03:33;7.22;;;3.90;;
27921;SDS011;15261;50.356;10.340;2022-10-26T12:06:01;5.32;;;3.92;;
27921;SDS011;15261;50.356;10.340;2022-10-26T12:08:40;9.07;;;3.85;;
27921;SDS011;15261;50.356;10.340;2022-10-26T12:22:28;9.63;;;3.63;;
27921;SDS011;15261;50.356;10.340;2022-10-26T12:25:04;10.43;;;3.97;;
27921;SDS011;15261;50.356;10.340;2022-10-26T12:43:35;9.02;;;4.05;;
27921;SDS011;15261;50.356;10.340;2022-10-26T12:48:44;8.48;;;4.18;;
27921;SDS011;15261;50.356;10.340;2022-10-26T12:51:17;17.13;;;4.38;;
27921;SDS011;15261;50.356;10.340;2022-10-26T12:57:06;14.40;;;4.43;;
27921;SDS011;15261;50.356;10.340;2022-10-26T12:59:41;5.47;;;3.60;;
27921;SDS011;15261;50.356;10.340;2022-10-26T13:07:49;6.78;;;3.50;;
27921;SDS011;15261;50.356;10.340;2022-10-26T13:10:19;6.80;;;3.33;;
27921;SDS011;15261;50.356;10.340;2022-10-26T13:12:54;5.15;;;2.83;;
27921;SDS011;15261;50.356;10.340;2022-10-26T13:15:26;6.60;;;2.67;;
27921;SDS011;15261;50.356;10.340;2022-10-26T13:18:00;7.18;;;2.85;;
27921;SDS011;15261;50.356;10.340;2022-10-26T13:20:30;4.25;;;3.08;;
27921;SDS011;15261;50.356;10.340;2022-10-26T13:22:56;4.97;;;3.28;;
27921;SDS011;15261;50.356;10.340;2022-10-26T13:25:23;6.45;;;3.13;;
27921;SDS011;15261;50.356;10.340;2022-10-26T13:30:59;6.05;;;2.90;;
27921;SDS011;15261;50.356;10.340;2022-10-26T13:33:26;8.02;;;3.03;;
27921;SDS011;15261;50.356;10.340;2022-10-26T13:36:10;6.50;;;3.25;;
27921;SDS011;15261;50.356;10.340;2022-10-26T13:38:42;4.63;;;3.20;;
27921;SDS011;15261;50.356;10.340;2022-10-26T13:41:14;8.18;;;3.03;;
27921;SDS011;15261;50.356;10.340;2022-10-26T13:43:45;6.88;;;3.40;;
27921;SDS011;15261;50.356;10.340;2022-10-26T13:46:24;6.13;;;3.00;;
27921;SDS011;15261;50.356;10.340;2022-10-26T13:48:53;7.25;;;2.85;;
27921;SDS011;15261;50.356;10.340;2022-10-26T13:51:32;5.20;;;2.83;;
27921;SDS011;15261;50.356;10.340;2022-10-26T13:54:06;7.82;;;3.15;;
27921;SDS011;15261;50.356;10.340;2022-10-26T13:56:56;6.47;;;2.88;;
27921;SDS011;15261;50.356;10.340;2022-10-26T13:59:43;4.90;;;3.00;;
27921;SDS011;15261;50.356;10.340;2022-10-26T14:02:17;3.40;;;2.67;;
27921;SDS011;15261;50.356;10.340;2022-10-26T14:04:47;8.10;;;3.30;;
27921;SDS011;15261;50.356;10.340;2022-10-26T14:07:19;4.15;;;2.80;;
27921;SDS011;15261;50.356;10.340;2022-10-26T14:09:52;9.68;;;3.22;;
27921;SDS011;15261;50.356;10.340;2022-10-26T14:12:19;9.38;;;3.30;;
27921;SDS011;15261;50.356;10.340;2022-10-26T14:14:45;5.25;;;2.97;;
27921;SDS011;15261;50.356;10.340;2022-10-26T14:17:18;4.03;;;3.00;;
27921;SDS011;15261;50.356;10.340;2022-10-26T14:19:46;5.15;;;3.00;;
27921;SDS011;15261;50.356;10.340;2022-10-26T14:22:23;7.40;;;3.10;;
27921;SDS011;15261;50.356;10.340;2022-10-26T14:24:53;5.30;;;3.00;;
27921;SDS011;15261;50.356;10.340;2022-10-26T14:27:24;8.35;;;2.83;;
27921;SDS011;15261;50.356;10.340;2022-10-26T14:29:57;7.40;;;2.78;;
27921;SDS011;15261;50.356;10.340;2022-10-26T14:32:28;8.13;;;2.95;;
27921;SDS011;15261;50.356;10.340;2022-10-26T14:34:57;8.95;;;3.08;;
27921;SDS011;15261;50.356;10.340;2022-10-26T14:37:36;7.13;;;3.20;;
27921;SDS011;15261;50.356;10.340;2022-10-26T14:40:17;7.68;;;2.83;;
27921;SDS011;15261;50.356;10.340;2022-10-26T14:42:46;9.60;;;3.33;;
27921;SDS011;15261;50.356;10.340;2022-10-26T14:45:22;9.40;;;3.33;;
27921;SDS011;15261;50.356;10.340;2022-10-26T14:47:52;9.20;;;3.95;;
27921;SDS011;15261;50.356;10.340;2022-10-26T14:50:20;7.88;;;3.50;;
27921;SDS011;15261;50.356;10.340;2022-10-26T14:52:54;5.70;;;3.22;;
27921;SDS011;15261;50.356;10.340;2022-10-26T14:55:50;7.88;;;3.40;;
27921;SDS011;15261;50.356;10.340;2022-10-26T14:58:25;7.97;;;3.22;;
27921;SDS011;15261;50.356;10.340;2022-10-26T15:03:47;9.93;;;3.92;;
27921;SDS011;15261;50.356;10.340;2022-10-26T15:09:49;10.23;;;4.15;;
27921;SDS011;15261;50.356;10.340;2022-10-26T15:12:30;4.45;;;3.80;;
27921;SDS011;15261;50.356;10.340;2022-10-26T15:14:59;16.80;;;3.97;;
27921;SDS011;15261;50.356;10.340;2022-10-26T15:17:49;8.65;;;4.63;;
27921;SDS011;15261;50.356;10.340;2022-10-26T15:20:25;6.68;;;3.28;;
27921;SDS011;15261;50.356;10.340;2022-10-26T15:22:53;5.40;;;3.40;;
27921;SDS011;15261;50.356;10.340;2022-10-26T15:25:34;5.38;;;3.50;;
27921;SDS011;15261;50.356;10.340;2022-10-26T15:28:10;9.80;;;3.90;;
27921;SDS011;15261;50.356;10.340;2022-10-26T15:33:43;6.85;;;3.80;;
27921;SDS011;15261;50.356;10.340;2022-10-26T15:36:27;8.15;;;3.90;;
27921;SDS011;15261;50.356;10.340;2022-10-26T15:38:54;5.20;;;3.63;;
27921;SDS011;15261;50.356;10.340;2022-10-26T15:44:02;9.43;;;4.10;;
27921;SDS011;15261;50.356;10.340;2022-10-26T15:46:32;9.32;;;4.30;;
27921;SDS011;15261;50.356;10.340;2022-10-26T15:52:26;14.25;;;4.20;;
27921;SDS011;15261;50.356;10.340;2022-10-26T15:54:52;8.85;;;4.15;;
27921;SDS011;15261;50.356;10.340;2022-10-26T15:57:18;8.13;;;3.50;;
27921;SDS011;15261;50.356;10.340;2022-10-26T15:59:43;6.82;;;3.90;;
27921;SDS011;15261;50.356;10.340;2022-10-26T16:02:16;6.78;;;4.07;;
27921;SDS011;15261;50.356;10.340;2022-10-26T16:04:42;9.15;;;4.40;;
27921;SDS011;15261;50.356;10.340;2022-10-26T16:07:11;10.15;;;3.92;;
27921;SDS011;15261;50.356;10.340;2022-10-26T16:09:38;13.15;;;4.47;;
27921;SDS011;15261;50.356;10.340;2022-10-26T16:12:05;10.13;;;4.53;;
27921;SDS011;15261;50.356;10.340;2022-10-26T16:14:33;7.40;;;4.30;;
27921;SDS011;15261;50.356;10.340;2022-10-26T16:16:58;7.63;;;4.15;;
27921;SDS011;15261;50.356;10.340;2022-10-26T16:19:24;13.13;;;4.47;;
27921;SDS011;15261;50.356;10.340;2022-10-26T16:21:59;11.10;;;4.75;;
27921;SDS011;15261;50.356;10.340;2022-10-26T16:24:26;11.88;;;4.85;;
27921;SDS011;15261;50.356;10.340;2022-10-26T16:26:52;12.20;;;5.10;;
27921;SDS011;15261;50.356;10.340;2022-10-26T16:32:35;11.57;;;4.70;;
27921;SDS011;15261;50.356;10.340;2022-10-26T16:37:44;10.57;;;4.88;;
27921;SDS011;15261;50.356;10.340;2022-10-26T16:40:10;9.95;;;4.50;;
27921;SDS011;15261;50.356;10.340;2022-10-26T16:42:35;9.02;;;4.68;;
27921;SDS011;15261;50.356;10.340;2022-10-26T16:45:01;11.55;;;5.13;;
27921;SDS011;15261;50.356;10.340;2022-10-26T16:47:27;21.92;;;17.30;;
27921;SDS011;15261;50.356;10.340;2022-10-26T16:49:58;142.88;;;127.72;;
27921;SDS011;15261;50.356;10.340;2022-10-26T16:52:23;118.47;;;106.28;;
27921;SDS011;15261;50.356;10.340;2022-10-26T16:54:49;94.30;;;84.25;;
27921;SDS011;15261;50.356;10.340;2022-10-26T16:57:27;64.72;;;57.45;;
27921;SDS011;15261;50.356;10.340;2022-10-26T16:59:52;60.42;;;53.83;;
27921;SDS011;15261;50.356;10.340;2022-10-26T17:02:18;28.17;;;21.23;;
27921;SDS011;15261;50.356;10.340;2022-10-26T17:07:46;17.02;;;14.63;;
27921;SDS011;15261;50.356;10.340;2022-10-26T17:10:11;22.40;;;19.38;;
27921;SDS011;15261;50.356;10.340;2022-10-26T17:16:01;13.10;;;9.52;;
27921;SDS011;15261;50.356;10.340;2022-10-26T17:18:38;11.23;;;7.60;;
27921;SDS011;15261;50.356;10.340;2022-10-26T17:21:04;16.08;;;11.27;;
27921;SDS011;15261;50.356;10.340;2022-10-26T17:23:30;126.93;;;110.43;;
27921;SDS011;15261;50.356;10.340;2022-10-26T17:25:59;57.67;;;47.65;;
27921;SDS011;15261;50.356;10.340;2022-10-26T17:31:18;20.13;;;16.65;;